sensor_id;sensor_type;location;lat;lon;timestamp;P1;durP1;ratioP1;P2;durP2;ratioP2
58123;SDS011;46725;48.068;20.832;2022-09-09T00:00:14;22.05;;;13.70;;
58123;SDS011;46725;48.068;20.832;2022-09-09T00:02:41;25.63;;;14.85;;
58123;SDS011;46725;48.068;20.832;2022-09-09T00:05:22;19.52;;;14.80;;
58123;SDS011;46725;48.068;20.832;2022-09-09T00:10:26;24.65;;;20.08;;
58123;SDS011;46725;48.068;20.832;2022-09-09T00:21:11;21.38;;;16.25;;
58123;SDS011;46725;48.068;20.832;2022-09-09T00:23:43;24.25;;;17.08;;
58123;SDS011;46725;48.068;20.832;2022-09-09T00:28:50;18.63;;;14.48;;
58123;SDS011;46725;48.068;20.832;2022-09-09T00:31:20;20.85;;;14.50;;
58123;SDS011;46725;48.068;20.832;2022-09-09T00:33:49;19.15;;;13.38;;
58123;SDS011;46725;48.068;20.832;2022-09-09T00:36:17;16.77;;;12.82;;
58123;SDS011;46725;48.068;20.832;2022-09-09T00:38:48;17.60;;;13.13;;
58123;SDS011;46725;48.068;20.832;2022-09-09T00:44:00;14.93;;;11.38;;
58123;SDS011;46725;48.068;20.832;2022-09-09T00:49:19;16.95;;;11.82;;
58123;SDS011;46725;48.068;20.832;2022-09-09T00:56:53;14.60;;;10.18;;
58123;SDS011;46725;48.068;20.832;2022-09-09T01:01:49;13.32;;;9.32;;
58123;SDS011;46725;48.068;20.832;2022-09-09T01:04:16;12.65;;;9.07;;
58123;SDS011;46725;48.068;20.832;2022-09-09T01:06:46;16.27;;;10.32;;
58123;SDS011;46725;48.068;20.832;2022-09-09T01:14:30;12.88;;;8.55;;
58123;SDS011;46725;48.068;20.832;2022-09-09T01:16:59;10.30;;;8.15;;
58123;SDS011;46725;48.068;20.832;2022-09-09T01:19:33;10.88;;;7.25;;
58123;SDS011;46725;48.068;20.832;2022-09-09T01:22:09;10.63;;;7.93;;
58123;SDS011;46725;48.068;20.832;2022-09-09T01:27:23;10.98;;;7.70;;
58123;SDS011;46725;48.068;20.832;2022-09-09T01:29:50;12.30;;;8.60;;
58123;SDS011;46725;48.068;20.832;2022-09-09T01:35:01;14.13;;;8.80;;
58123;SDS011;46725;48.068;20.832;2022-09-09T01:37:27;12.80;;;8.20;;
58123;SDS011;46725;48.068;20.832;2022-09-09T01:39:53;12.40;;;9.05;;
58123;SDS011;46725;48.068;20.832;2022-09-09T01:42:19;12.23;;;8.10;;
58123;SDS011;46725;48.068;20.832;2022-09-09T01:44:46;10.43;;;8.45;;
58123;SDS011;46725;48.068;20.832;2022-09-09T01:47:12;13.00;;;7.78;;
58123;SDS011;46725;48.068;20.832;2022-09-09T01:49:38;11.13;;;8.65;;
58123;SDS011;46725;48.068;20.832;2022-09-09T01:52:04;10.98;;;8.50;;
58123;SDS011;46725;48.068;20.832;2022-09-09T01:54:31;13.90;;;9.15;;
58123;SDS011;46725;48.068;20.832;2022-09-09T02:06:54;11.73;;;8.38;;
58123;SDS011;46725;48.068;20.832;2022-09-09T02:09:22;11.73;;;9.02;;
58123;SDS011;46725;48.068;20.832;2022-09-09T02:11:49;11.88;;;8.77;;
58123;SDS011;46725;48.068;20.832;2022-09-09T02:14:18;10.68;;;8.30;;
58123;SDS011;46725;48.068;20.832;2022-09-09T02:16:51;11.63;;;8.55;;
58123;SDS011;46725;48.068;20.832;2022-09-09T02:19:29;12.80;;;7.93;;
58123;SDS011;46725;48.068;20.832;2022-09-09T02:21:56;14.05;;;7.50;;
58123;SDS011;46725;48.068;20.832;2022-09-09T02:24:23;10.07;;;6.47;;
58123;SDS011;46725;48.068;20.832;2022-09-09T02:26:51;8.30;;;6.10;;
58123;SDS011;46725;48.068;20.832;2022-09-09T02:29:20;8.80;;;6.18;;
58123;SDS011;46725;48.068;20.832;2022-09-09T02:31:47;8.50;;;5.80;;
58123;SDS011;46725;48.068;20.832;2022-09-09T02:34:14;9.25;;;5.60;;
58123;SDS011;46725;48.068;20.832;2022-09-09T02:36:42;8.95;;;5.50;;
58123;SDS011;46725;48.068;20.832;2022-09-09T02:39:08;13.70;;;5.15;;
58123;SDS011;46725;48.068;20.832;2022-09-09T02:41:36;7.10;;;4.82;;
58123;SDS011;46725;48.068;20.832;2022-09-09T02:44:05;7.40;;;4.72;;
58123;SDS011;46725;48.068;20.832;2022-09-09T02:49:10;7.00;;;4.80;;
58123;SDS011;46725;48.068;20.832;2022-09-09T02:54:10;7.30;;;4.75;;
58123;SDS011;46725;48.068;20.832;2022-09-09T02:56:43;6.30;;;4.72;;
58123;SDS011;46725;48.068;20.832;2022-09-09T02:59:11;7.03;;;4.80;;
58123;SDS011;46725;48.068;20.832;2022-09-09T03:01:37;6.75;;;4.63;;
58123;SDS011;46725;48.068;20.832;2022-09-09T03:04:06;6.47;;;4.60;;
58123;SDS011;46725;48.068;20.832;2022-09-09T03:06:35;7.18;;;4.45;;
58123;SDS011;46725;48.068;20.832;2022-09-09T03:09:01;6.70;;;4.53;;
58123;SDS011;46725;48.068;20.832;2022-09-09T03:11:28;8.65;;;4.32;;
58123;SDS011;46725;48.068;20.832;2022-09-09T03:13:54;8.00;;;4.38;;
58123;SDS011;46725;48.068;20.832;2022-09-09T03:16:23;5.80;;;4.20;;
58123;SDS011;46725;48.068;20.832;2022-09-09T03:18:50;7.13;;;4.53;;
58123;SDS011;46725;48.068;20.832;2022-09-09T03:21:16;5.75;;;4.32;;
58123;SDS011;46725;48.068;20.832;2022-09-09T03:23:43;6.65;;;5.03;;
58123;SDS011;46725;48.068;20.832;2022-09-09T03:26:10;7.20;;;4.97;;
58123;SDS011;46725;48.068;20.832;2022-09-09T03:28:36;7.03;;;4.72;;
58123;SDS011;46725;48.068;20.832;2022-09-09T03:31:03;7.80;;;4.95;;
58123;SDS011;46725;48.068;20.832;2022-09-09T03:33:30;9.05;;;4.95;;
58123;SDS011;46725;48.068;20.832;2022-09-09T03:35:56;6.82;;;4.85;;
58123;SDS011;46725;48.068;20.832;2022-09-09T03:38:25;6.03;;;4.72;;
58123;SDS011;46725;48.068;20.832;2022-09-09T03:40:52;7.07;;;4.95;;
58123;SDS011;46725;48.068;20.832;2022-09-09T03:43:22;9.48;;;5.00;;
58123;SDS011;46725;48.068;20.832;2022-09-09T03:45:48;7.00;;;5.07;;
58123;SDS011;46725;48.068;20.832;2022-09-09T03:48:15;9.75;;;5.15;;
58123;SDS011;46725;48.068;20.832;2022-09-09T03:50:48;7.50;;;4.80;;
58123;SDS011;46725;48.068;20.832;2022-09-09T03:53:15;10.43;;;5.32;;
58123;SDS011;46725;48.068;20.832;2022-09-09T03:55:45;7.75;;;5.28;;
58123;SDS011;46725;48.068;20.832;2022-09-09T03:58:12;7.97;;;5.65;;
58123;SDS011;46725;48.068;20.832;2022-09-09T04:00:39;7.15;;;5.25;;
58123;SDS011;46725;48.068;20.832;2022-09-09T04:03:07;8.95;;;5.35;;
58123;SDS011;46725;48.068;20.832;2022-09-09T04:05:35;7.40;;;4.75;;
58123;SDS011;46725;48.068;20.832;2022-09-09T04:08:05;9.02;;;5.05;;
58123;SDS011;46725;48.068;20.832;2022-09-09T04:10:31;9.90;;;5.00;;
58123;SDS011;46725;48.068;20.832;2022-09-09T04:12:57;7.55;;;4.57;;
58123;SDS011;46725;48.068;20.832;2022-09-09T04:15:24;8.48;;;4.60;;
58123;SDS011;46725;48.068;20.832;2022-09-09T04:17:50;9.65;;;4.75;;
58123;SDS011;46725;48.068;20.832;2022-09-09T04:20:16;7.50;;;4.60;;
58123;SDS011;46725;48.068;20.832;2022-09-09T04:22:42;8.00;;;4.72;;
58123;SDS011;46725;48.068;20.832;2022-09-09T04:25:09;7.05;;;4.28;;
58123;SDS011;46725;48.068;20.832;2022-09-09T04:27:35;6.15;;;4.32;;
58123;SDS011;46725;48.068;20.832;2022-09-09T04:30:01;6.90;;;5.10;;
58123;SDS011;46725;48.068;20.832;2022-09-09T04:32:27;7.32;;;5.10;;
58123;SDS011;46725;48.068;20.832;2022-09-09T04:34:53;6.78;;;4.68;;
58123;SDS011;46725;48.068;20.832;2022-09-09T04:37:19;7.95;;;4.90;;
58123;SDS011;46725;48.068;20.832;2022-09-09T04:39:45;8.13;;;5.43;;
58123;SDS011;46725;48.068;20.832;2022-09-09T04:42:11;9.52;;;5.80;;
58123;SDS011;46725;48.068;20.832;2022-09-09T04:44:37;7.07;;;5.72;;
58123;SDS011;46725;48.068;20.832;2022-09-09T04:47:05;8.48;;;4.78;;
58123;SDS011;46725;48.068;20.832;2022-09-09T04:49:31;8.68;;;5.70;;
58123;SDS011;46725;48.068;20.832;2022-09-09T04:51:57;7.82;;;5.60;;
58123;SDS011;46725;48.068;20.832;2022-09-09T04:54:23;6.85;;;4.57;;
58123;SDS011;46725;48.068;20.832;2022-09-09T04:56:50;8.35;;;5.90;;
58123;SDS011;46725;48.068;20.832;2022-09-09T04:59:16;9.98;;;6.47;;
58123;SDS011;46725;48.068;20.832;2022-09-09T05:01:42;10.32;;;5.95;;
58123;SDS011;46725;48.068;20.832;2022-09-09T05:04:08;9.27;;;6.53;;
58123;SDS011;46725;48.068;20.832;2022-09-09T05:06:34;9.68;;;6.53;;
58123;SDS011;46725;48.068;20.832;2022-09-09T05:09:01;10.48;;;6.75;;
58123;SDS011;46725;48.068;20.832;2022-09-09T05:11:28;10.05;;;6.90;;
58123;SDS011;46725;48.068;20.832;2022-09-09T05:13:55;11.75;;;7.15;;
58123;SDS011;46725;48.068;20.832;2022-09-09T05:16:22;11.75;;;6.70;;
58123;SDS011;46725;48.068;20.832;2022-09-09T05:18:48;9.63;;;7.10;;
58123;SDS011;46725;48.068;20.832;2022-09-09T05:21:16;9.48;;;6.78;;
58123;SDS011;46725;48.068;20.832;2022-09-09T05:23:42;9.93;;;7.18;;
58123;SDS011;46725;48.068;20.832;2022-09-09T05:26:11;11.73;;;7.03;;
58123;SDS011;46725;48.068;20.832;2022-09-09T05:28:38;9.68;;;6.75;;
58123;SDS011;46725;48.068;20.832;2022-09-09T05:31:05;9.63;;;6.65;;
58123;SDS011;46725;48.068;20.832;2022-09-09T05:33:36;11.48;;;7.55;;
58123;SDS011;46725;48.068;20.832;2022-09-09T05:36:06;10.60;;;6.68;;
58123;SDS011;46725;48.068;20.832;2022-09-09T05:38:33;10.40;;;7.03;;
58123;SDS011;46725;48.068;20.832;2022-09-09T05:40:59;10.10;;;6.45;;
58123;SDS011;46725;48.068;20.832;2022-09-09T05:43:26;11.20;;;6.18;;
58123;SDS011;46725;48.068;20.832;2022-09-09T05:46:06;8.88;;;6.28;;
58123;SDS011;46725;48.068;20.832;2022-09-09T05:48:34;10.60;;;6.80;;
58123;SDS011;46725;48.068;20.832;2022-09-09T05:51:00;8.95;;;6.03;;
58123;SDS011;46725;48.068;20.832;2022-09-09T05:53:27;11.80;;;6.75;;
58123;SDS011;46725;48.068;20.832;2022-09-09T05:58:28;10.50;;;6.47;;
58123;SDS011;46725;48.068;20.832;2022-09-09T06:01:00;10.30;;;6.35;;
58123;SDS011;46725;48.068;20.832;2022-09-09T06:03:26;8.55;;;5.82;;
58123;SDS011;46725;48.068;20.832;2022-09-09T06:06:00;7.32;;;5.28;;
58123;SDS011;46725;48.068;20.832;2022-09-09T06:08:26;7.80;;;5.80;;
58123;SDS011;46725;48.068;20.832;2022-09-09T06:10:52;11.18;;;6.32;;
58123;SDS011;46725;48.068;20.832;2022-09-09T06:13:18;7.70;;;5.68;;
58123;SDS011;46725;48.068;20.832;2022-09-09T06:15:50;8.10;;;5.75;;
58123;SDS011;46725;48.068;20.832;2022-09-09T06:18:17;8.75;;;5.72;;
58123;SDS011;46725;48.068;20.832;2022-09-09T06:20:52;9.23;;;6.10;;
58123;SDS011;46725;48.068;20.832;2022-09-09T06:23:19;9.13;;;6.05;;
58123;SDS011;46725;48.068;20.832;2022-09-09T06:25:45;10.02;;;6.63;;
58123;SDS011;46725;48.068;20.832;2022-09-09T06:28:11;8.65;;;6.43;;
58123;SDS011;46725;48.068;20.832;2022-09-09T06:30:38;8.05;;;5.70;;
58123;SDS011;46725;48.068;20.832;2022-09-09T06:33:05;8.85;;;6.53;;
58123;SDS011;46725;48.068;20.832;2022-09-09T06:35:31;9.90;;;6.10;;
58123;SDS011;46725;48.068;20.832;2022-09-09T06:37:57;13.18;;;7.07;;
58123;SDS011;46725;48.068;20.832;2022-09-09T06:40:24;9.60;;;7.30;;
58123;SDS011;46725;48.068;20.832;2022-09-09T06:42:50;11.95;;;7.60;;
58123;SDS011;46725;48.068;20.832;2022-09-09T06:45:16;9.68;;;7.10;;
58123;SDS011;46725;48.068;20.832;2022-09-09T06:47:42;11.43;;;7.00;;
58123;SDS011;46725;48.068;20.832;2022-09-09T06:50:08;8.93;;;6.95;;
58123;SDS011;46725;48.068;20.832;2022-09-09T06:52:36;12.95;;;7.35;;
58123;SDS011;46725;48.068;20.832;2022-09-09T06:55:02;10.95;;;7.25;;
58123;SDS011;46725;48.068;20.832;2022-09-09T06:57:29;10.35;;;8.32;;
58123;SDS011;46725;48.068;20.832;2022-09-09T06:59:55;14.32;;;7.82;;
58123;SDS011;46725;48.068;20.832;2022-09-09T07:02:21;11.77;;;7.45;;
58123;SDS011;46725;48.068;20.832;2022-09-09T07:04:47;11.68;;;8.20;;
58123;SDS011;46725;48.068;20.832;2022-09-09T07:07:16;12.65;;;7.78;;
58123;SDS011;46725;48.068;20.832;2022-09-09T07:09:42;11.07;;;7.95;;
58123;SDS011;46725;48.068;20.832;2022-09-09T07:12:10;9.55;;;7.78;;
58123;SDS011;46725;48.068;20.832;2022-09-09T07:14:38;10.15;;;7.95;;
58123;SDS011;46725;48.068;20.832;2022-09-09T07:17:04;10.48;;;7.55;;
58123;SDS011;46725;48.068;20.832;2022-09-09T07:19:30;10.57;;;7.57;;
58123;SDS011;46725;48.068;20.832;2022-09-09T07:21:56;12.40;;;7.63;;
58123;SDS011;46725;48.068;20.832;2022-09-09T07:24:22;12.07;;;8.38;;
58123;SDS011;46725;48.068;20.832;2022-09-09T07:26:48;10.57;;;7.28;;
58123;SDS011;46725;48.068;20.832;2022-09-09T07:29:14;10.70;;;8.82;;
58123;SDS011;46725;48.068;20.832;2022-09-09T07:31:41;11.70;;;8.13;;
58123;SDS011;46725;48.068;20.832;2022-09-09T07:34:07;14.98;;;9.73;;
58123;SDS011;46725;48.068;20.832;2022-09-09T07:36:34;11.35;;;9.02;;
58123;SDS011;46725;48.068;20.832;2022-09-09T07:39:04;12.20;;;9.23;;
58123;SDS011;46725;48.068;20.832;2022-09-09T07:43:59;10.48;;;8.80;;
58123;SDS011;46725;48.068;20.832;2022-09-09T07:46:25;13.07;;;9.43;;
58123;SDS011;46725;48.068;20.832;2022-09-09T07:48:52;12.50;;;9.80;;
58123;SDS011;46725;48.068;20.832;2022-09-09T07:51:30;10.88;;;9.73;;
58123;SDS011;46725;48.068;20.832;2022-09-09T07:53:58;14.43;;;10.02;;
58123;SDS011;46725;48.068;20.832;2022-09-09T07:56:25;12.02;;;10.52;;
58123;SDS011;46725;48.068;20.832;2022-09-09T07:58:52;15.82;;;11.20;;
58123;SDS011;46725;48.068;20.832;2022-09-09T08:03:44;14.88;;;12.00;;
58123;SDS011;46725;48.068;20.832;2022-09-09T08:06:11;13.48;;;11.40;;
58123;SDS011;46725;48.068;20.832;2022-09-09T08:08:38;15.20;;;12.13;;
58123;SDS011;46725;48.068;20.832;2022-09-09T08:11:13;14.55;;;11.25;;
58123;SDS011;46725;48.068;20.832;2022-09-09T08:13:40;13.00;;;10.95;;
58123;SDS011;46725;48.068;20.832;2022-09-09T08:16:14;13.68;;;11.02;;
58123;SDS011;46725;48.068;20.832;2022-09-09T08:18:40;16.00;;;10.80;;
58123;SDS011;46725;48.068;20.832;2022-09-09T08:21:11;19.27;;;12.60;;
58123;SDS011;46725;48.068;20.832;2022-09-09T08:23:40;13.85;;;10.95;;
58123;SDS011;46725;48.068;20.832;2022-09-09T08:26:14;15.32;;;11.52;;
58123;SDS011;46725;48.068;20.832;2022-09-09T08:28:40;12.55;;;10.07;;
58123;SDS011;46725;48.068;20.832;2022-09-09T08:31:08;13.40;;;10.63;;
58123;SDS011;46725;48.068;20.832;2022-09-09T08:33:35;15.93;;;10.88;;
58123;SDS011;46725;48.068;20.832;2022-09-09T08:36:03;12.52;;;11.23;;
58123;SDS011;46725;48.068;20.832;2022-09-09T08:38:29;14.30;;;11.07;;
58123;SDS011;46725;48.068;20.832;2022-09-09T08:40:58;14.73;;;10.82;;
58123;SDS011;46725;48.068;20.832;2022-09-09T08:43:26;15.10;;;11.10;;
58123;SDS011;46725;48.068;20.832;2022-09-09T08:45:59;14.63;;;10.57;;
58123;SDS011;46725;48.068;20.832;2022-09-09T08:48:39;15.43;;;12.35;;
58123;SDS011;46725;48.068;20.832;2022-09-09T08:51:06;12.25;;;10.18;;
58123;SDS011;46725;48.068;20.832;2022-09-09T08:53:51;14.73;;;11.00;;
58123;SDS011;46725;48.068;20.832;2022-09-09T08:56:27;14.85;;;11.77;;
58123;SDS011;46725;48.068;20.832;2022-09-09T08:58:54;14.52;;;11.18;;
58123;SDS011;46725;48.068;20.832;2022-09-09T09:04:00;14.00;;;10.75;;
58123;SDS011;46725;48.068;20.832;2022-09-09T09:09:27;13.52;;;10.20;;
58123;SDS011;46725;48.068;20.832;2022-09-09T09:11:59;14.25;;;11.35;;
58123;SDS011;46725;48.068;20.832;2022-09-09T09:14:29;14.98;;;11.23;;
58123;SDS011;46725;48.068;20.832;2022-09-09T09:19:29;14.25;;;10.43;;
58123;SDS011;46725;48.068;20.832;2022-09-09T09:26:57;12.27;;;10.50;;
58123;SDS011;46725;48.068;20.832;2022-09-09T09:29:26;12.73;;;10.15;;
58123;SDS011;46725;48.068;20.832;2022-09-09T09:31:53;15.13;;;11.27;;
58123;SDS011;46725;48.068;20.832;2022-09-09T09:34:20;12.68;;;9.82;;
58123;SDS011;46725;48.068;20.832;2022-09-09T09:36:52;15.07;;;10.13;;
58123;SDS011;46725;48.068;20.832;2022-09-09T09:39:26;12.15;;;9.18;;
58123;SDS011;46725;48.068;20.832;2022-09-09T09:41:52;14.07;;;10.60;;
58123;SDS011;46725;48.068;20.832;2022-09-09T09:44:23;11.93;;;9.02;;
58123;SDS011;46725;48.068;20.832;2022-09-09T09:46:50;18.55;;;10.70;;
58123;SDS011;46725;48.068;20.832;2022-09-09T09:49:16;14.00;;;9.75;;
58123;SDS011;46725;48.068;20.832;2022-09-09T09:51:42;12.07;;;9.88;;
58123;SDS011;46725;48.068;20.832;2022-09-09T09:54:27;11.30;;;9.48;;
58123;SDS011;46725;48.068;20.832;2022-09-09T09:56:54;13.75;;;10.38;;
58123;SDS011;46725;48.068;20.832;2022-09-09T09:59:32;11.00;;;9.32;;
58123;SDS011;46725;48.068;20.832;2022-09-09T10:02:18;13.02;;;10.18;;
58123;SDS011;46725;48.068;20.832;2022-09-09T10:04:45;12.20;;;9.50;;
58123;SDS011;46725;48.068;20.832;2022-09-09T10:07:19;12.10;;;9.68;;
58123;SDS011;46725;48.068;20.832;2022-09-09T10:09:52;12.75;;;9.07;;
58123;SDS011;46725;48.068;20.832;2022-09-09T10:15:47;10.55;;;9.13;;
58123;SDS011;46725;48.068;20.832;2022-09-09T10:36:49;9.82;;;7.88;;
58123;SDS011;46725;48.068;20.832;2022-09-09T10:39:19;13.10;;;8.07;;
58123;SDS011;46725;48.068;20.832;2022-09-09T10:50:01;11.95;;;8.07;;
58123;SDS011;46725;48.068;20.832;2022-09-09T10:52:39;14.00;;;9.30;;
58123;SDS011;46725;48.068;20.832;2022-09-09T10:55:11;10.05;;;8.23;;
58123;SDS011;46725;48.068;20.832;2022-09-09T10:57:40;15.73;;;9.20;;
58123;SDS011;46725;48.068;20.832;2022-09-09T11:00:15;12.15;;;8.80;;
58123;SDS011;46725;48.068;20.832;2022-09-09T11:02:42;9.18;;;7.53;;
58123;SDS011;46725;48.068;20.832;2022-09-09T11:05:12;10.13;;;6.57;;
58123;SDS011;46725;48.068;20.832;2022-09-09T11:07:42;6.85;;;4.82;;
58123;SDS011;46725;48.068;20.832;2022-09-09T11:12:42;5.68;;;3.65;;
58123;SDS011;46725;48.068;20.832;2022-09-09T11:15:14;6.28;;;4.07;;
58123;SDS011;46725;48.068;20.832;2022-09-09T11:17:44;7.25;;;4.07;;
58123;SDS011;46725;48.068;20.832;2022-09-09T11:20:12;5.32;;;3.97;;
58123;SDS011;46725;48.068;20.832;2022-09-09T11:23:01;7.03;;;4.75;;
58123;SDS011;46725;48.068;20.832;2022-09-09T11:33:28;6.18;;;4.13;;
58123;SDS011;46725;48.068;20.832;2022-09-09T11:40:59;5.97;;;3.40;;
58123;SDS011;46725;48.068;20.832;2022-09-09T11:43:27;4.45;;;3.10;;
58123;SDS011;46725;48.068;20.832;2022-09-09T11:45:55;5.18;;;3.35;;
58123;SDS011;46725;48.068;20.832;2022-09-09T11:48:34;5.45;;;3.35;;
58123;SDS011;46725;48.068;20.832;2022-09-09T11:51:05;4.35;;;2.83;;
58123;SDS011;46725;48.068;20.832;2022-09-09T11:53:32;4.55;;;2.90;;
58123;SDS011;46725;48.068;20.832;2022-09-09T11:56:12;5.88;;;3.10;;
58123;SDS011;46725;48.068;20.832;2022-09-09T11:58:40;7.88;;;3.72;;
58123;SDS011;46725;48.068;20.832;2022-09-09T12:01:26;7.00;;;3.78;;
58123;SDS011;46725;48.068;20.832;2022-09-09T12:04:28;6.72;;;3.53;;
58123;SDS011;46725;48.068;20.832;2022-09-09T12:06:54;5.85;;;2.92;;
58123;SDS011;46725;48.068;20.832;2022-09-09T12:09:27;5.18;;;3.50;;
58123;SDS011;46725;48.068;20.832;2022-09-09T12:12:05;5.07;;;3.33;;
58123;SDS011;46725;48.068;20.832;2022-09-09T12:14:35;6.70;;;4.15;;
58123;SDS011;46725;48.068;20.832;2022-09-09T12:19:40;6.53;;;3.60;;
58123;SDS011;46725;48.068;20.832;2022-09-09T12:27:40;5.85;;;3.20;;
58123;SDS011;46725;48.068;20.832;2022-09-09T12:32:35;6.75;;;3.50;;
58123;SDS011;46725;48.068;20.832;2022-09-09T12:35:11;5.65;;;3.60;;
58123;SDS011;46725;48.068;20.832;2022-09-09T12:40:26;6.82;;;4.03;;
58123;SDS011;46725;48.068;20.832;2022-09-09T12:42:51;7.88;;;3.67;;
58123;SDS011;46725;48.068;20.832;2022-09-09T12:45:18;7.47;;;4.20;;
58123;SDS011;46725;48.068;20.832;2022-09-09T12:47:49;5.63;;;3.92;;
58123;SDS011;46725;48.068;20.832;2022-09-09T12:50:19;5.68;;;3.83;;
58123;SDS011;46725;48.068;20.832;2022-09-09T12:52:47;5.95;;;4.25;;
58123;SDS011;46725;48.068;20.832;2022-09-09T12:55:20;6.95;;;4.18;;
58123;SDS011;46725;48.068;20.832;2022-09-09T12:57:46;6.43;;;4.32;;
58123;SDS011;46725;48.068;20.832;2022-09-09T13:00:16;8.15;;;4.82;;
58123;SDS011;46725;48.068;20.832;2022-09-09T13:02:49;5.68;;;4.10;;
58123;SDS011;46725;48.068;20.832;2022-09-09T13:05:17;6.25;;;4.32;;
58123;SDS011;46725;48.068;20.832;2022-09-09T13:07:43;7.00;;;4.30;;
58123;SDS011;46725;48.068;20.832;2022-09-09T13:10:13;8.63;;;4.47;;
58123;SDS011;46725;48.068;20.832;2022-09-09T13:12:40;5.93;;;3.60;;
58123;SDS011;46725;48.068;20.832;2022-09-09T13:15:12;6.55;;;4.30;;
58123;SDS011;46725;48.068;20.832;2022-09-09T13:17:40;8.32;;;4.43;;
58123;SDS011;46725;48.068;20.832;2022-09-09T13:20:14;7.13;;;4.47;;
58123;SDS011;46725;48.068;20.832;2022-09-09T13:22:41;10.73;;;4.55;;
58123;SDS011;46725;48.068;20.832;2022-09-09T13:27:38;6.07;;;4.13;;
58123;SDS011;46725;48.068;20.832;2022-09-09T13:35:30;5.70;;;4.50;;
58123;SDS011;46725;48.068;20.832;2022-09-09T13:37:57;5.88;;;4.55;;
58123;SDS011;46725;48.068;20.832;2022-09-09T13:40:23;8.68;;;4.68;;
58123;SDS011;46725;48.068;20.832;2022-09-09T13:42:56;8.07;;;4.55;;
58123;SDS011;46725;48.068;20.832;2022-09-09T13:45:24;6.18;;;4.28;;
58123;SDS011;46725;48.068;20.832;2022-09-09T13:47:52;6.20;;;3.75;;
58123;SDS011;46725;48.068;20.832;2022-09-09T13:50:21;6.15;;;4.00;;
58123;SDS011;46725;48.068;20.832;2022-09-09T13:52:48;7.00;;;4.07;;
58123;SDS011;46725;48.068;20.832;2022-09-09T13:55:16;6.47;;;3.92;;
58123;SDS011;46725;48.068;20.832;2022-09-09T13:57:54;6.85;;;4.00;;
58123;SDS011;46725;48.068;20.832;2022-09-09T14:00:21;9.77;;;4.22;;
58123;SDS011;46725;48.068;20.832;2022-09-09T14:02:48;6.88;;;4.50;;
58123;SDS011;46725;48.068;20.832;2022-09-09T14:05:15;8.15;;;4.18;;
58123;SDS011;46725;48.068;20.832;2022-09-09T14:07:41;6.72;;;4.05;;
58123;SDS011;46725;48.068;20.832;2022-09-09T14:10:07;5.38;;;3.60;;
58123;SDS011;46725;48.068;20.832;2022-09-09T14:12:34;5.28;;;3.78;;
58123;SDS011;46725;48.068;20.832;2022-09-09T14:15:01;5.63;;;3.78;;
58123;SDS011;46725;48.068;20.832;2022-09-09T14:17:27;5.63;;;3.83;;
58123;SDS011;46725;48.068;20.832;2022-09-09T14:19:56;6.57;;;3.75;;
58123;SDS011;46725;48.068;20.832;2022-09-09T14:22:23;5.28;;;3.67;;
58123;SDS011;46725;48.068;20.832;2022-09-09T14:24:50;5.65;;;3.40;;
58123;SDS011;46725;48.068;20.832;2022-09-09T14:27:16;5.72;;;3.55;;
58123;SDS011;46725;48.068;20.832;2022-09-09T14:29:44;4.72;;;3.45;;
58123;SDS011;46725;48.068;20.832;2022-09-09T14:32:10;7.45;;;4.30;;
58123;SDS011;46725;48.068;20.832;2022-09-09T14:34:36;5.13;;;3.58;;
58123;SDS011;46725;48.068;20.832;2022-09-09T14:37:03;7.43;;;4.05;;
58123;SDS011;46725;48.068;20.832;2022-09-09T14:39:29;6.93;;;3.78;;
58123;SDS011;46725;48.068;20.832;2022-09-09T14:41:55;6.32;;;4.00;;
58123;SDS011;46725;48.068;20.832;2022-09-09T14:44:21;7.07;;;4.05;;
58123;SDS011;46725;48.068;20.832;2022-09-09T14:46:47;7.30;;;4.15;;
58123;SDS011;46725;48.068;20.832;2022-09-09T14:49:15;7.35;;;4.43;;
58123;SDS011;46725;48.068;20.832;2022-09-09T14:51:41;8.18;;;4.47;;
58123;SDS011;46725;48.068;20.832;2022-09-09T14:54:07;7.20;;;4.45;;
58123;SDS011;46725;48.068;20.832;2022-09-09T14:56:33;6.35;;;3.90;;
58123;SDS011;46725;48.068;20.832;2022-09-09T14:59:00;11.32;;;4.57;;
58123;SDS011;46725;48.068;20.832;2022-09-09T15:01:26;5.10;;;3.53;;
58123;SDS011;46725;48.068;20.832;2022-09-09T15:03:54;4.38;;;3.33;;
58123;SDS011;46725;48.068;20.832;2022-09-09T15:06:20;5.90;;;3.42;;
58123;SDS011;46725;48.068;20.832;2022-09-09T15:08:47;6.15;;;4.18;;
58123;SDS011;46725;48.068;20.832;2022-09-09T15:11:13;5.63;;;3.53;;
58123;SDS011;46725;48.068;20.832;2022-09-09T15:13:40;4.97;;;3.33;;
58123;SDS011;46725;48.068;20.832;2022-09-09T15:16:10;5.40;;;3.03;;
58123;SDS011;46725;48.068;20.832;2022-09-09T15:18:36;6.95;;;3.28;;
58123;SDS011;46725;48.068;20.832;2022-09-09T15:21:05;5.70;;;3.55;;
58123;SDS011;46725;48.068;20.832;2022-09-09T15:23:32;5.07;;;3.03;;
58123;SDS011;46725;48.068;20.832;2022-09-09T15:25:59;6.00;;;3.45;;
58123;SDS011;46725;48.068;20.832;2022-09-09T15:28:26;6.13;;;3.20;;
58123;SDS011;46725;48.068;20.832;2022-09-09T15:30:52;4.35;;;3.00;;
58123;SDS011;46725;48.068;20.832;2022-09-09T15:33:19;4.78;;;3.22;;
58123;SDS011;46725;48.068;20.832;2022-09-09T15:35:46;4.93;;;3.38;;
58123;SDS011;46725;48.068;20.832;2022-09-09T15:38:12;4.72;;;2.92;;
58123;SDS011;46725;48.068;20.832;2022-09-09T15:40:40;7.03;;;3.40;;
58123;SDS011;46725;48.068;20.832;2022-09-09T15:43:06;5.65;;;3.35;;
58123;SDS011;46725;48.068;20.832;2022-09-09T15:45:33;5.80;;;3.13;;
58123;SDS011;46725;48.068;20.832;2022-09-09T15:48:05;5.75;;;3.10;;
58123;SDS011;46725;48.068;20.832;2022-09-09T15:50:31;6.03;;;3.60;;
58123;SDS011;46725;48.068;20.832;2022-09-09T15:52:57;5.32;;;3.25;;
58123;SDS011;46725;48.068;20.832;2022-09-09T15:55:23;5.00;;;3.15;;
58123;SDS011;46725;48.068;20.832;2022-09-09T15:57:50;4.28;;;2.72;;
58123;SDS011;46725;48.068;20.832;2022-09-09T16:00:17;7.75;;;3.65;;
58123;SDS011;46725;48.068;20.832;2022-09-09T16:02:44;4.90;;;2.90;;
58123;SDS011;46725;48.068;20.832;2022-09-09T16:05:10;5.40;;;2.80;;
58123;SDS011;46725;48.068;20.832;2022-09-09T16:07:36;4.60;;;3.00;;
58123;SDS011;46725;48.068;20.832;2022-09-09T16:10:02;5.35;;;2.38;;
58123;SDS011;46725;48.068;20.832;2022-09-09T16:12:28;4.70;;;2.80;;
58123;SDS011;46725;48.068;20.832;2022-09-09T16:14:54;5.22;;;2.83;;
58123;SDS011;46725;48.068;20.832;2022-09-09T16:17:20;4.28;;;2.90;;
58123;SDS011;46725;48.068;20.832;2022-09-09T16:19:46;4.95;;;2.83;;
58123;SDS011;46725;48.068;20.832;2022-09-09T16:22:12;4.40;;;2.55;;
58123;SDS011;46725;48.068;20.832;2022-09-09T16:24:40;6.05;;;2.78;;
58123;SDS011;46725;48.068;20.832;2022-09-09T16:27:06;5.97;;;2.55;;
58123;SDS011;46725;48.068;20.832;2022-09-09T16:29:32;4.45;;;2.42;;
58123;SDS011;46725;48.068;20.832;2022-09-09T16:31:58;4.95;;;2.80;;
58123;SDS011;46725;48.068;20.832;2022-09-09T16:34:25;3.92;;;2.60;;
58123;SDS011;46725;48.068;20.832;2022-09-09T16:36:51;5.25;;;2.53;;
58123;SDS011;46725;48.068;20.832;2022-09-09T16:39:18;4.28;;;2.63;;
58123;SDS011;46725;48.068;20.832;2022-09-09T16:41:45;3.70;;;2.33;;
58123;SDS011;46725;48.068;20.832;2022-09-09T16:44:13;4.20;;;2.60;;
58123;SDS011;46725;48.068;20.832;2022-09-09T16:46:40;6.30;;;2.53;;
58123;SDS011;46725;48.068;20.832;2022-09-09T16:49:08;4.43;;;3.05;;
58123;SDS011;46725;48.068;20.832;2022-09-09T16:51:35;4.20;;;2.90;;
58123;SDS011;46725;48.068;20.832;2022-09-09T16:54:02;6.03;;;3.38;;